Helen D. Coppedge — WCA5274 — position and weather

sailwx.info

Track history (hours):
 
Tides and Currents Weather Stations Pressure Air Temp Water Temp Dewpoint Dewpoint Depression Visibility Wind Speed Wind Dir Waves Ship Positions

Helen D. Coppedge

Owner: MORAN TOWING CORPORATION, Philadelphia, PA. More information available from US FCC via Universal Licensing System and Coast Guard Vessel Documentation Center.

Last reported at 2017-Jun-10 16:30 UTC. Time now 2017-Jun-24 00:13 UTC.
Position N 40°53' W 073°56'.
Warning: this ship's position is 13 days out of date.

Date/timePositionNaut miles runAvg speedWind from/ knotsBaromVisibWave heightAir tempDewpointWater temp
2017-Jun-10 16:30N 40°53' W 073°56'  
2017-Jun-07 00:13N 40°53' W 073°56'2 8.2
2017-Jun-07 00:00N 40°52' W 073°57'4 7.1
2017-Jun-06 23:30N 40°48' W 073°59'3 6.2
2017-Jun-06 23:01N 40°46' W 074°01'3 6.0
2017-Jun-06 22:30N 40°43' W 074°01'3 6.1
2017-Jun-06 22:01N 40°40' W 074°02'0 0.9
2017-Jun-06 21:30N 40°39' W 074°02'0 0.1
2017-Jun-06 21:01N 40°39' W 074°02'0 0.3
2017-Jun-06 20:31N 40°39' W 074°02'4 8.8
2017-Jun-06 20:01N 40°39' W 074°08'2 0.3
2017-Jun-06 15:30N 40°39' W 074°10'0 0.1
2017-Jun-06 15:00N 40°39' W 074°10'3 6.4
2017-Jun-06 14:30N 40°39' W 074°06'3 3.1
2017-Jun-06 13:31N 40°37' W 074°03'10 0.4
2017-Jun-05 09:59N 40°35' W 073°50'3 5.3
2017-Jun-05 09:27N 40°34' W 073°54'4 4.2
2017-Jun-05 08:31N 40°34' W 073°59'0 4.4
2017-Jun-05 08:29N 40°34' W 073°59'2 3.7
2017-Jun-05 08:00N 40°34' W 074°01'3 5.2
2017-Jun-05 07:31N 40°37' W 074°03'2 4.9
2017-Jun-05 07:01N 40°39' W 074°02'0 0.4
2017-Jun-05 06:31N 40°39' W 074°02'0 0.1
2017-Jun-05 06:01N 40°39' W 074°02'0 0.1
2017-Jun-05 05:31N 40°39' W 074°02'0 0.0
2017-Jun-05 05:01N 40°39' W 074°02'0 0.0
2017-Jun-05 04:30N 40°39' W 074°02'0 0.0
2017-Jun-05 04:01N 40°39' W 074°02'0 0.0
2017-Jun-05 03:31N 40°39' W 074°02'0 0.0
2017-Jun-05 03:00N 40°39' W 074°02'0 0.0
2017-Jun-05 02:31N 40°39' W 074°02'0 0.4
2017-Jun-05 02:01N 40°39' W 074°02'1 2.9
2017-Jun-05 01:31N 40°41' W 074°03'3 6.1
2017-Jun-05 01:01N 40°44' W 074°01'3 5.3
2017-Jun-05 00:31N 40°46' W 074°00'2 4.3
2017-Jun-05 00:00N 40°48' W 073°59'2 3.7
2017-Jun-04 23:31N 40°50' W 073°58'2 3.5
2017-Jun-04 23:01N 40°51' W 073°57'2 3.3
2017-Jun-04 22:31N 40°53' W 073°56'2 3.4
2017-Jun-04 22:00N 40°54' W 073°56'  
2017-May-31 20:03N 40°53' W 073°56'0 6.8
2017-May-31 20:00N 40°53' W 073°56'3 6.8
2017-May-31 19:29N 40°50' W 073°58'3 7.2
2017-May-31 19:00N 40°47' W 073°60'3 6.8
2017-May-31 18:30N 40°44' W 074°01'3 6.8
2017-May-31 18:00N 40°40' W 074°02'1 1.3
2017-May-31 17:30N 40°40' W 074°02'1 2.2
2017-May-31 17:00N 40°39' W 074°03'1 1.5
2017-May-31 16:31N 40°40' W 074°04'  
Track history (hours):
 
Tides and Currents Weather Stations Pressure Air Temp Water Temp Dewpoint Dewpoint Depression Visibility Wind Speed Wind Dir Waves Ship Positions

Helen D. Coppedge

Owner: MORAN TOWING CORPORATION, Philadelphia, PA. More information available from US FCC via Universal Licensing System and Coast Guard Vessel Documentation Center.

Last reported at 2017-Jun-10 16:30 UTC. Time now 2017-Jun-24 00:13 UTC.
Position N 40°53' W 073°56'.
Warning: this ship's position is 13 days out of date.

Date/timePositionNaut miles runAvg speedWind from/ knotsBaromVisibWave heightAir tempDewpointWater temp
2017-Jun-10 16:30N 40°53' W 073°56'  
2017-Jun-07 00:13N 40°53' W 073°56'2 8.2
2017-Jun-07 00:00N 40°52' W 073°57'4 7.1
2017-Jun-06 23:30N 40°48' W 073°59'3 6.2
2017-Jun-06 23:01N 40°46' W 074°01'3 6.0
2017-Jun-06 22:30N 40°43' W 074°01'3 6.1
2017-Jun-06 22:01N 40°40' W 074°02'0 0.9
2017-Jun-06 21:30N 40°39' W 074°02'0 0.1
2017-Jun-06 21:01N 40°39' W 074°02'0 0.3
2017-Jun-06 20:31N 40°39' W 074°02'4 8.8
2017-Jun-06 20:01N 40°39' W 074°08'2 0.3
2017-Jun-06 15:30N 40°39' W 074°10'0 0.1
2017-Jun-06 15:00N 40°39' W 074°10'3 6.4
2017-Jun-06 14:30N 40°39' W 074°06'3 3.1
2017-Jun-06 13:31N 40°37' W 074°03'10 0.4
2017-Jun-05 09:59N 40°35' W 073°50'3 5.3
2017-Jun-05 09:27N 40°34' W 073°54'4 4.2
2017-Jun-05 08:31N 40°34' W 073°59'0 4.4
2017-Jun-05 08:29N 40°34' W 073°59'2 3.7
2017-Jun-05 08:00N 40°34' W 074°01'3 5.2
2017-Jun-05 07:31N 40°37' W 074°03'2 4.9
2017-Jun-05 07:01N 40°39' W 074°02'0 0.4
2017-Jun-05 06:31N 40°39' W 074°02'0 0.1
2017-Jun-05 06:01N 40°39' W 074°02'0 0.1
2017-Jun-05 05:31N 40°39' W 074°02'0 0.0
2017-Jun-05 05:01N 40°39' W 074°02'0 0.0
2017-Jun-05 04:30N 40°39' W 074°02'0 0.0
2017-Jun-05 04:01N 40°39' W 074°02'0 0.0
2017-Jun-05 03:31N 40°39' W 074°02'0 0.0
2017-Jun-05 03:00N 40°39' W 074°02'0 0.0
2017-Jun-05 02:31N 40°39' W 074°02'0 0.4
2017-Jun-05 02:01N 40°39' W 074°02'1 2.9
2017-Jun-05 01:31N 40°41' W 074°03'3 6.1
2017-Jun-05 01:01N 40°44' W 074°01'3 5.3
2017-Jun-05 00:31N 40°46' W 074°00'2 4.3
2017-Jun-05 00:00N 40°48' W 073°59'2 3.7
2017-Jun-04 23:31N 40°50' W 073°58'2 3.5
2017-Jun-04 23:01N 40°51' W 073°57'2 3.3
2017-Jun-04 22:31N 40°53' W 073°56'2 3.4
2017-Jun-04 22:00N 40°54' W 073°56'  
2017-May-31 20:03N 40°53' W 073°56'0 6.8
2017-May-31 20:00N 40°53' W 073°56'3 6.8
2017-May-31 19:29N 40°50' W 073°58'3 7.2
2017-May-31 19:00N 40°47' W 073°60'3 6.8
2017-May-31 18:30N 40°44' W 074°01'3 6.8
2017-May-31 18:00N 40°40' W 074°02'1 1.3
2017-May-31 17:30N 40°40' W 074°02'1 2.2
2017-May-31 17:00N 40°39' W 074°03'1 1.5
2017-May-31 16:31N 40°40' W 074°04'  

Dump ship's entire track history